首页
METAR-TAF:

METAR-TAF

机场 :

哈米德·卡尔扎伊国际机场

喀布尔, 阿富汗

纬度: 34-38N, 经度: 069-12E, 海拔: 1789米

当前天气观测

该预报发布于45分钟前的09:50 UTC
风速4节,风向西北
温度 8°C
湿度 87%
气压 1022 hPa
能見度: 8000
散云层高于1000英尺
多云层高于4000英尺
阴天层高于8000英尺
小雨

METAR: OAKB 150950Z 31004KT 8000 -RA SCT010 BKN040 OVC080 08/06 Q1022 NOSIG RMK A3020 BLU BLU

时间: 15:05 (10:35 UTC)

预报

该预报发布于5小时和30分钟前的05:05 UTC
预报有效从15日的 06点(UTC)到 16日的 06点(UTC)
风速2节,风向多变
能见度10公里或以上
散云层高于4000英尺
多云层高于8000英尺
短暂存在
从 15日的 06点(UTC)到 15日的 10点(UTC)
风速12节,风向东转东南
能見度: 7000
散云层高于3000英尺
阴天层高于5000英尺
小阵雨
成为
从 15日的 11点(UTC)到 15日的 12点(UTC)
风速12节,风向
多云层高于7000英尺
成为
从 15日的 17点(UTC)到 15日的 18点(UTC)
风速2节,风向多变
成为
从 15日的 19点(UTC)到 15日的 20点(UTC)
散云层高于8000英尺
短暂存在
从 16日的 02点(UTC)到 16日的 05点(UTC)
能見度: 5000
轻雾

TAF: OAKB 150505Z 1506/1606 VRB02KT 9999 SCT040 BKN080 TEMPO 1506/1510 11012KT 7000 -SHRA SCT030 OVC050 BECMG 1511/1512 36012KT BKN070 BECMG 1517/1518 VRB02KT BECMG 1519/1520 SCT080 TEMPO 1602/1605 5000 BR

超过4000个机场的气象观测和天气预报(METAR&TAF报告)。

可查询的气象台以黄色和红色小点在地图上表示。

将鼠标移到小点上方,可查看气象台名称。

然后点击查看天气观测和预报。

如需切换地图:点击带黑十字的绿色按钮放大地图;点击带横线的绿色按钮缩小地图;或者点击绿色箭头查看邻近地区的地图。


METAR-TAF: